Montezuma, Indiana
Current Conditions -  °F | °C
As of 4:15 AM on Monday 20 Oct 2014 (Local Time) from KPRG Reporting Station
Broken Clouds Broken Clouds  
Wind Chill: 47°   Ceiling: 9000
Heat Index: 50°   Visibility: 10mi
Dew Point: 46°   Wind: 7mph
Humidity: 86%   Direction: 200°SSW
Pressure: 29.97"   Gusts: NA
Location:  39.79°N, 87.37°W
Report Text: KPRG 200815Z AUTO 20006KT 10SM BKN090 BKN110 10/08 A2997 RMK AO2 T00990076
Loading
Personal Weather Stations






























Interactive Weather Map
Tropical Storm Tracking
New forecast layout! Learn more

10-Day Weather Forecast

Advertisements
Track Severe Weather on mobile